Terminal Aerodrome Forecast
Issued by NWS

Home | Current Version | Previous Version | Text Only | Print | Product List | Glossary On
Versions: 1 2 3 4 5 6 7 8 9 10 11 12 13 14 15 16 17 18 19 20 21 22 23 24 25
000
FTUS43 KGRR 220530
TAFMKG
TAF
KMKG 220530Z 2206/2306 17002KT 1/2SM FG VV002
     FM221600 04005KT 4SM BR OVC007
     FM221800 04007KT 5SM HZ OVC015
     FM230000 03005KT 2SM BR BKN015=

USA.gov is the U.S. government's official web portal to all federal, state and local government web resources and services.